Detalii statie SCHWAB AGRO ARDUD [00001CF5]

Toti senzorii

Date Temperatura solului [C]Precipitatii [mm]Voltaj baterie [mV]Leaf Wetness [Min]HC Air temperature [C]HC Relative humidity [%]Punctul de roua [C]
medieminmaxsumaultimatimpmedieminmaxmediemediemin
2018-10-13 17:00:00 0 6874 20.88 20 21.74 89.02 18.8 18.4
2018-10-13 18:00:00 0 6874 17.74 15.66 19.76 98.71 17.4 15.6
2018-10-13 19:00:00 0 6864 14.03 12.62 15.35 100 13.9 12.6
2018-10-13 20:00:00 0 6854 12.49 11.21 13.81 100 12.4 11.2
2018-10-13 21:00:00 0 6844 10.27 8.89 11.25 100 10.2 8.8
2018-10-13 22:00:00 0 6854 9.32 8.21 10.93 100 9.2 8.2
2018-10-13 23:00:00 0 6854 9.57 9.21 10.36 100 9.5 9.2
2018-10-14 00:00:00 0 6844 8.61 7.43 9.68 100 8.5 7.4
2018-10-14 01:00:00 0 6834 6.96 6.24 7.86 100 6.9 6.2
2018-10-14 02:00:00 0 6844 6.83 6.4 7.25 100 6.8 6.4
2018-10-14 03:00:00 0 6826 7.62 6.25 8.44 100 7.5 6.2
2018-10-14 04:00:00 0 6826 9.84 8.78 11.19 100 9.8 8.7
2018-10-14 05:00:00 0 6826 11.06 10.01 11.63 100 11 10
2018-10-14 06:00:00 0 6834 10.91 10.27 11.71 100 10.8 10.2
2018-10-14 07:00:00 0 6826 10.96 10.61 11.36 100 10.9 10.6
2018-10-14 08:00:00 0 6834 9.24 8.75 9.82 100 9.2 8.7
2018-10-14 09:00:00 0 6834 10.88 9.5 13.12 100 10.8 9.5
2018-10-14 10:00:00 0 6826 17.47 13.84 19.48 83.9 14.5 13.8
2018-10-14 11:00:00 0 6942 20.24 19.35 21.38 73.29 15.1 14
2018-10-14 12:00:00 0 7030 21.72 20.75 22.45 67.15 15.2 14.4
2018-10-14 13:00:00 0 7030 22.79 22.28 23.4 64.08 15.5 14.9
2018-10-14 14:00:00 0 7040 23.09 22.86 23.58 63.75 15.6 15
2018-10-14 15:00:00 0 7000 23.46 22.98 23.92 61.72 15.5 15.2
2018-10-14 16:00:00 0 6932 22.32 21.76 23.08 59.1 13.7 13
2018-10-14 17:00:00 0 6894 20.93 19.2 21.83 59.17 12.4 11.7
2018-10-14 18:00:00 0 6884 16.59 14.43 18.63 68.12 10.5 9.6
2018-10-14 19:00:00 0 6854 12.15 10.67 13.93 87.37 9.9 9.3
2018-10-14 20:00:00 0 6844 9.94 8.82 11.3 94.93 9 8.6
2018-10-14 21:00:00 0 6844 8.18 7.32 9.84 99.5 8 7.3
2018-10-14 22:00:00 0 6854 7.27 6.88 7.53 100 7.2 6.8
2018-10-14 23:00:00 0 6844 6.48 6.21 6.81 100 6.4 6.2
2018-10-15 00:00:00 0 6844 6.4 5.41 7.42 100 6.3 5.4
2018-10-15 01:00:00 0 6844 7.48 5.61 9.04 96.97 6.9 5.6
2018-10-15 02:00:00 0 6834 11.21 10.2 11.93 85.42 8.7 8.2
2018-10-15 03:00:00 0 6826 10.21 9.56 10.89 89.5 8.4 7.8
2018-10-15 04:00:00 0 6826 10.07 9.58 10.5 87.73 7.9 7.5
2018-10-15 05:00:00 0 6844 11.57 10.66 12.57 77.29 7.5 7.2
2018-10-15 06:00:00 0 6834 10.65 9.52 12.07 79.8 7.1 6.3
2018-10-15 07:00:00 0 6834 9.5 8.16 11.16 83.6 6.7 5.8
2018-10-15 08:00:00 0 6816 9.99 9.63 10.73 87.83 7.9 7.4
2018-10-15 09:00:00 0 6826 13.89 11.62 15.55 80.39 10.4 9
2018-10-15 10:00:00 0 6834 17.57 16.02 19.34 71.43 12.1 10.8
2018-10-15 11:00:00 0 6914 19.54 18.84 20.45 70.52 13.9 13.1
2018-10-15 12:00:00 0 6982 20.76 19.7 22.25 68.58 14.6 13.5
2018-10-15 13:00:00 0 7020 22.57 22.23 22.71 65.13 15.5 15
2018-10-15 14:00:00 0 7030 22.8 22.31 23.34 64.52 15.5 14.7
2018-10-15 15:00:00 0 7010 23.59 22.8 24.28 62.83 15.9 15.5